Butaritari, Kiribati
Current Conditions -  °F | °C
As of 9:00 PM on Thursday 27 Nov 2014 (Local Time) from NGTT Reporting Station
Broken Clouds Broken Clouds  
Wind Chill: 84°   Ceiling: 30000
Heat Index: 91°   Visibility: 6mi
Dew Point: 73°   Wind: 13mph
Humidity: 70%   Direction: 100°E
Pressure: 29.74"   Gusts: NA
Location:  3.08°N, 172.79°E
Report Text: NGTT 270900Z 10011KT 9999 FEW018 BKN300 29/23 Q1007
Loading
Personal Weather Stations






























Interactive Weather Map New forecast layout! Learn more

10-Day Weather Forecast

Advertisements
Track Severe Weather on mobile